createdAt,value
2022-10-13T00:00:05.731Z,42.47
2022-10-13T00:03:04.686Z,40.35
2022-10-13T00:05:45.467Z,34.90
2022-10-13T00:08:21.258Z,38.35
2022-10-13T00:10:53.761Z,39.75
2022-10-13T00:13:27.502Z,33.45
2022-10-13T00:16:02.774Z,37.03
2022-10-13T00:18:35.864Z,36.92
2022-10-13T00:21:10.469Z,34.10
2022-10-13T00:23:43.476Z,41.38
2022-10-13T00:26:17.252Z,37.53
2022-10-13T00:28:52.815Z,37.17
2022-10-13T00:31:31.133Z,45.92
2022-10-13T00:34:03.945Z,41.80
2022-10-13T00:36:36.432Z,44.55
2022-10-13T00:39:09.157Z,42.88
2022-10-13T00:41:41.740Z,37.08
2022-10-13T00:44:52.096Z,46.53
2022-10-13T00:47:26.789Z,34.60
2022-10-13T00:50:01.244Z,40.53
2022-10-13T00:52:35.532Z,45.72
2022-10-13T00:55:11.393Z,43.50
2022-10-13T00:57:46.937Z,52.28
2022-10-13T01:00:19.809Z,43.53
2022-10-13T01:02:52.762Z,39.90
2022-10-13T01:05:25.920Z,49.08
2022-10-13T01:07:59.711Z,45.38
2022-10-13T01:10:56.200Z,41.72
2022-10-13T01:13:38.990Z,43.15
2022-10-13T01:16:35.085Z,49.88
2022-10-13T01:19:19.869Z,47.17
2022-10-13T01:22:10.521Z,37.20
2022-10-13T01:24:48.652Z,51.20
2022-10-13T01:27:35.467Z,54.53
2022-10-13T01:30:13.510Z,47.92
2022-10-13T01:33:01.201Z,43.97
2022-10-13T01:35:47.472Z,54.67
2022-10-13T01:38:27.160Z,52.42
2022-10-13T01:41:13.081Z,50.20
2022-10-13T01:44:16.185Z,48.72
2022-10-13T01:46:50.304Z,56.60
2022-10-13T01:49:30.204Z,53.67
2022-10-13T01:52:07.863Z,58.90
2022-10-13T01:54:40.942Z,44.97
2022-10-13T01:57:44.058Z,45.58
2022-10-13T02:00:20.275Z,46.53
2022-10-13T02:03:01.956Z,62.40
2022-10-13T02:05:49.472Z,49.30
2022-10-13T02:08:44.499Z,52.70
2022-10-13T02:11:21.114Z,57.70
2022-10-13T02:14:21.983Z,56.50
2022-10-13T02:16:57.546Z,61.13
2022-10-13T02:19:34.122Z,46.85
2022-10-13T02:22:08.327Z,55.90
2022-10-13T02:24:41.102Z,49.17
2022-10-13T02:27:14.318Z,60.08
2022-10-13T02:29:52.030Z,48.58
2022-10-13T02:32:24.948Z,45.55
2022-10-13T02:34:57.673Z,51.65
2022-10-13T02:37:30.454Z,37.72
2022-10-13T02:40:03.354Z,43.22
2022-10-13T02:42:36.154Z,36.67
2022-10-13T02:45:09.571Z,32.50
2022-10-13T02:47:42.438Z,33.88
2022-10-13T02:50:15.135Z,33.38
2022-10-13T02:52:47.938Z,35.63
2022-10-13T02:55:20.493Z,33.28
2022-10-13T02:57:53.255Z,31.08
2022-10-13T03:00:26.383Z,34.28
2022-10-13T03:02:59.326Z,29.13
2022-10-13T03:05:31.978Z,29.98
2022-10-13T03:08:05.010Z,33.03
2022-10-13T03:10:37.699Z,27.05
2022-10-13T03:13:10.672Z,30.83
2022-10-13T03:15:43.271Z,30.35
2022-10-13T03:18:16.071Z,27.17
2022-10-13T03:21:03.691Z,33.28
2022-10-13T03:23:36.551Z,28.90
2022-10-13T03:26:09.926Z,28.65
2022-10-13T03:28:43.304Z,27.25
2022-10-13T03:31:16.359Z,29.45
2022-10-13T03:33:49.139Z,33.40
2022-10-13T03:36:21.764Z,24.17
2022-10-13T03:38:54.599Z,22.27
2022-10-13T03:41:27.123Z,34.15
2022-10-13T03:43:59.939Z,32.78
2022-10-13T03:46:32.602Z,27.67
2022-10-13T03:49:05.664Z,25.90
2022-10-13T03:51:38.451Z,28.13
2022-10-13T03:54:12.946Z,23.67
2022-10-13T03:56:45.651Z,28.13
2022-10-13T03:59:18.759Z,25.02
2022-10-13T04:01:51.392Z,27.08
2022-10-13T04:04:24.304Z,25.65
2022-10-13T04:06:56.998Z,28.05
2022-10-13T04:09:29.924Z,22.77
2022-10-13T04:12:02.838Z,34.17
2022-10-13T04:14:35.656Z,26.95
2022-10-13T04:17:08.266Z,36.65
2022-10-13T04:19:40.973Z,28.08
2022-10-13T04:22:13.675Z,28.90
2022-10-13T04:24:46.842Z,26.20
2022-10-13T04:27:20.330Z,27.17
2022-10-13T04:29:53.714Z,33.13
2022-10-13T04:32:27.535Z,31.15
2022-10-13T04:35:03.893Z,30.92
2022-10-13T04:37:36.674Z,29.20
2022-10-13T04:40:10.109Z,30.17
2022-10-13T04:42:42.706Z,35.83
2022-10-13T04:45:15.587Z,39.00
2022-10-13T04:47:48.567Z,29.52
2022-10-13T04:50:22.106Z,30.08
2022-10-13T04:52:54.694Z,31.83
2022-10-13T04:55:27.708Z,29.13
2022-10-13T04:58:00.314Z,28.10
2022-10-13T05:00:33.054Z,29.67
2022-10-13T05:03:06.386Z,26.35
2022-10-13T05:05:40.154Z,28.23
2022-10-13T05:08:12.819Z,31.08
2022-10-13T05:11:00.862Z,28.83
2022-10-13T05:13:33.467Z,27.67
2022-10-13T05:16:11.005Z,25.42
2022-10-13T05:18:44.192Z,32.03
2022-10-13T05:21:20.742Z,28.50
2022-10-13T05:23:55.446Z,28.52
2022-10-13T05:26:32.342Z,30.90
2022-10-13T05:29:09.912Z,29.35
2022-10-13T05:31:42.911Z,28.15
2022-10-13T05:34:15.654Z,27.48
2022-10-13T05:36:48.454Z,23.25
2022-10-13T05:39:21.255Z,29.52
2022-10-13T05:41:54.221Z,26.48
2022-10-13T05:44:26.914Z,50.67
2022-10-13T05:47:03.669Z,25.38
2022-10-13T05:49:41.919Z,29.63
2022-10-13T05:52:14.665Z,28.35
2022-10-13T05:54:50.357Z,23.60
2022-10-13T05:57:33.302Z,27.85
2022-10-13T06:00:09.468Z,36.90
2022-10-13T06:02:58.530Z,34.38
2022-10-13T06:05:32.891Z,31.23
2022-10-13T06:08:05.679Z,24.35
2022-10-13T06:10:38.257Z,23.17
2022-10-13T06:13:10.976Z,27.83
2022-10-13T06:15:43.489Z,28.50
2022-10-13T06:18:16.489Z,28.52
2022-10-13T06:20:59.551Z,28.30
2022-10-13T06:23:35.181Z,25.38
2022-10-13T06:26:19.550Z,27.63
2022-10-13T06:28:56.953Z,28.90
2022-10-13T06:31:35.818Z,33.85
2022-10-13T06:34:08.714Z,29.05
2022-10-13T06:36:42.294Z,27.48
2022-10-13T06:39:15.435Z,29.15
2022-10-13T06:41:48.445Z,31.17
2022-10-13T06:44:21.285Z,28.88
2022-10-13T06:46:54.035Z,29.85
2022-10-13T06:49:27.123Z,30.90
2022-10-13T06:52:00.227Z,34.00
2022-10-13T06:54:33.333Z,31.83
2022-10-13T06:57:06.830Z,33.20
2022-10-13T06:59:39.821Z,32.58
2022-10-13T07:02:12.525Z,36.17
2022-10-13T07:04:46.512Z,33.03
2022-10-13T07:07:19.514Z,29.73
2022-10-13T07:09:52.253Z,35.83
2022-10-13T07:12:24.774Z,40.00
2022-10-13T07:14:57.533Z,36.70
2022-10-13T07:17:30.104Z,32.85
2022-10-13T07:20:07.279Z,31.83
2022-10-13T07:22:40.365Z,33.83
2022-10-13T07:25:13.174Z,35.38
2022-10-13T07:27:45.749Z,33.08
2022-10-13T07:30:18.755Z,36.95
2022-10-13T07:32:51.478Z,35.67
2022-10-13T07:35:30.270Z,35.50
2022-10-13T07:38:03.291Z,36.80
2022-10-13T07:40:36.051Z,41.15
2022-10-13T07:43:08.618Z,36.00
2022-10-13T07:45:41.500Z,36.55
2022-10-13T07:48:14.297Z,32.30
2022-10-13T07:50:47.070Z,29.80
2022-10-13T07:53:20.085Z,37.03
2022-10-13T07:55:53.520Z,33.75
2022-10-13T07:58:26.045Z,32.70
2022-10-13T08:01:01.114Z,43.72
2022-10-13T08:03:33.811Z,31.67
2022-10-13T08:06:09.086Z,33.90
2022-10-13T08:08:41.784Z,27.33
2022-10-13T08:11:16.955Z,39.28
2022-10-13T08:13:51.394Z,30.27
2022-10-13T08:16:24.453Z,32.08
2022-10-13T08:18:57.892Z,31.00
2022-10-13T08:21:57.048Z,32.13
2022-10-13T08:24:23.369Z,35.97
2022-10-13T08:26:56.477Z,35.97
2022-10-13T08:29:29.190Z,34.22
2022-10-13T08:32:01.974Z,29.15
2022-10-13T08:34:36.557Z,28.88
2022-10-13T08:37:16.853Z,37.00
2022-10-13T08:39:49.472Z,32.47
2022-10-13T08:42:22.916Z,31.63
2022-10-13T08:45:43.821Z,41.38
2022-10-13T08:48:02.043Z,37.85
2022-10-13T08:50:39.516Z,35.03
2022-10-13T08:53:35.679Z,31.52
2022-10-13T08:56:15.562Z,31.13
2022-10-13T08:58:50.491Z,23.77
2022-10-13T09:01:33.490Z,29.20
2022-10-13T09:04:30.038Z,27.70
2022-10-13T09:07:10.283Z,29.52
2022-10-13T09:09:43.447Z,23.30
2022-10-13T09:12:16.063Z,31.33
2022-10-13T09:15:09.917Z,26.85
2022-10-13T09:17:42.601Z,27.42
2022-10-13T09:20:18.507Z,24.60
2022-10-13T09:23:20.792Z,27.15
2022-10-13T09:25:56.140Z,24.70
2022-10-13T09:28:33.136Z,24.77
2022-10-13T09:31:11.676Z,21.48
2022-10-13T09:33:56.595Z,18.48
2022-10-13T09:36:31.029Z,24.30
2022-10-13T09:39:15.953Z,15.40
2022-10-13T09:41:49.298Z,22.52
2022-10-13T09:44:32.142Z,14.63
2022-10-13T09:47:05.149Z,24.08
2022-10-13T09:49:43.825Z,23.90
2022-10-13T09:52:22.228Z,17.05
2022-10-13T09:55:01.179Z,14.00
2022-10-13T09:57:45.946Z,25.67
2022-10-13T10:00:25.987Z,15.43
2022-10-13T10:03:22.303Z,14.27
2022-10-13T10:05:56.436Z,16.02
2022-10-13T10:09:02.079Z,17.02
2022-10-13T10:11:42.415Z,18.80
2022-10-13T10:14:36.550Z,15.05
2022-10-13T10:17:14.904Z,15.77
2022-10-13T10:20:00.176Z,22.20
2022-10-13T10:23:05.889Z,16.23
2022-10-13T10:25:44.806Z,12.90
2022-10-13T10:28:29.331Z,16.77
2022-10-13T10:31:17.256Z,14.15
2022-10-13T10:34:00.627Z,14.82
2022-10-13T10:36:57.376Z,12.90
2022-10-13T10:39:47.373Z,15.55
2022-10-13T10:45:37.630Z,12.15
2022-10-13T10:48:21.158Z,8.60
2022-10-13T10:50:54.884Z,15.90
2022-10-13T10:53:49.367Z,10.27
2022-10-13T10:56:47.732Z,9.60
2022-10-13T10:59:30.597Z,9.82
2022-10-13T11:02:27.325Z,14.88
2022-10-13T11:05:05.343Z,9.25
2022-10-13T11:07:39.159Z,12.35
2022-10-13T11:10:17.669Z,15.88
2022-10-13T11:12:53.359Z,7.65
2022-10-13T11:15:31.191Z,10.18
2022-10-13T11:18:42.323Z,8.98
2022-10-13T11:21:15.427Z,6.05
2022-10-13T11:23:50.297Z,12.98
2022-10-13T11:26:26.068Z,9.95
2022-10-13T11:28:59.634Z,13.50
2022-10-13T11:31:49.307Z,9.27
2022-10-13T11:34:32.439Z,9.40
2022-10-13T11:37:18.095Z,7.45
2022-10-13T11:40:04.969Z,10.15
2022-10-13T11:42:53.280Z,11.40
2022-10-13T11:45:38.484Z,11.25
2022-10-13T11:48:42.574Z,9.43
2022-10-13T11:51:43.184Z,6.38
2022-10-13T11:54:39.678Z,6.82
2022-10-13T11:57:27.096Z,5.43
2022-10-13T11:59:59.863Z,11.27
2022-10-13T12:02:32.781Z,11.15
2022-10-13T12:05:24.135Z,6.85
2022-10-13T12:08:03.331Z,7.20
2022-10-13T12:10:38.113Z,17.02
2022-10-13T12:13:23.932Z,13.75
2022-10-13T12:16:08.373Z,10.48
2022-10-13T12:18:41.374Z,9.02
2022-10-13T12:21:20.034Z,8.90
2022-10-13T12:24:05.870Z,7.93
2022-10-13T12:26:39.415Z,10.57
2022-10-13T12:29:14.462Z,15.25
2022-10-13T12:31:49.818Z,9.63
2022-10-13T12:34:34.340Z,14.20
2022-10-13T12:37:36.789Z,11.40
2022-10-13T12:40:13.979Z,8.45
2022-10-13T12:42:47.527Z,10.82
2022-10-13T12:45:23.229Z,10.27
2022-10-13T12:47:55.996Z,11.65
2022-10-13T12:50:32.888Z,16.27
2022-10-13T12:53:08.276Z,11.95
2022-10-13T12:55:53.829Z,9.95
2022-10-13T12:58:31.373Z,8.93
2022-10-13T13:01:12.812Z,10.82
2022-10-13T13:03:45.634Z,9.38
2022-10-13T13:06:18.085Z,12.48
2022-10-13T13:09:21.142Z,9.75
2022-10-13T13:12:04.223Z,17.60
2022-10-13T13:14:44.905Z,9.88
2022-10-13T13:17:27.623Z,13.77
2022-10-13T13:20:20.568Z,6.45
2022-10-13T13:22:56.837Z,6.38
2022-10-13T13:25:29.645Z,8.85
2022-10-13T13:28:04.549Z,12.77
2022-10-13T13:30:37.228Z,5.47
2022-10-13T13:35:49.077Z,8.07
2022-10-13T13:38:21.682Z,10.48
2022-10-13T13:40:54.416Z,8.90
2022-10-13T13:43:26.918Z,8.88
2022-10-13T13:45:59.918Z,7.90
2022-10-13T13:48:32.833Z,13.13
2022-10-13T13:51:05.761Z,13.82
2022-10-13T13:53:38.290Z,11.57
2022-10-13T13:56:15.878Z,9.80
2022-10-13T13:58:48.481Z,8.02
2022-10-13T14:01:21.561Z,11.45
2022-10-13T14:03:54.182Z,9.82
2022-10-13T14:06:27.573Z,8.60
2022-10-13T14:09:00.055Z,8.98
2022-10-13T14:11:33.101Z,11.77
2022-10-13T14:14:05.690Z,6.30
2022-10-13T14:16:41.646Z,8.73
2022-10-13T14:19:27.584Z,9.73
2022-10-13T14:22:04.707Z,6.20
2022-10-13T14:24:41.495Z,9.52
2022-10-13T14:27:14.254Z,9.38
2022-10-13T14:29:47.242Z,13.40
2022-10-13T14:32:20.409Z,13.07
2022-10-13T14:34:53.074Z,6.72
2022-10-13T14:37:30.321Z,10.65
2022-10-13T14:40:05.730Z,7.95
2022-10-13T14:42:42.493Z,10.45
2022-10-13T14:45:15.869Z,8.90
2022-10-13T14:48:27.837Z,8.32
2022-10-13T14:50:55.162Z,6.55
2022-10-13T14:53:43.984Z,6.37
2022-10-13T14:56:35.225Z,7.53
2022-10-13T14:59:10.075Z,8.48
2022-10-13T15:01:43.501Z,11.30
2022-10-13T15:04:16.452Z,9.00
2022-10-13T15:06:49.007Z,8.25
2022-10-13T15:09:25.651Z,7.70
2022-10-13T15:12:06.358Z,7.13
2022-10-13T15:14:39.496Z,9.40
2022-10-13T15:17:12.051Z,14.25
2022-10-13T15:19:44.759Z,6.53
2022-10-13T15:22:17.320Z,11.80
2022-10-13T15:24:50.185Z,10.98
2022-10-13T15:27:23.091Z,9.00
2022-10-13T15:29:55.819Z,12.93
2022-10-13T15:32:28.370Z,10.90
2022-10-13T15:35:01.109Z,12.32
2022-10-13T15:37:33.608Z,15.07
2022-10-13T15:40:06.971Z,15.20
2022-10-13T15:42:39.572Z,11.35
2022-10-13T15:45:12.339Z,9.15
2022-10-13T15:47:44.867Z,12.55
2022-10-13T15:50:18.055Z,9.85
2022-10-13T15:52:50.696Z,14.05
2022-10-13T15:55:23.695Z,12.10
2022-10-13T15:57:56.194Z,10.23
2022-10-13T16:00:29.319Z,13.55
2022-10-13T16:03:04.566Z,12.23
2022-10-13T16:05:40.698Z,12.85
2022-10-13T16:08:14.534Z,7.30
2022-10-13T16:10:47.339Z,12.05
2022-10-13T16:13:19.936Z,8.85
2022-10-13T16:16:00.499Z,11.25
2022-10-13T16:21:33.257Z,10.23
2022-10-13T16:24:06.138Z,11.93
2022-10-13T16:26:38.877Z,9.60
2022-10-13T16:29:11.383Z,8.65
2022-10-13T16:31:44.252Z,13.30
2022-10-13T16:34:16.756Z,9.90
2022-10-13T16:36:50.240Z,9.18
2022-10-13T16:39:24.543Z,11.32
2022-10-13T16:41:57.264Z,13.05
2022-10-13T16:44:29.744Z,10.35
2022-10-13T16:47:04.928Z,9.18
2022-10-13T16:49:37.655Z,14.07
2022-10-13T16:52:10.371Z,9.40
2022-10-13T16:54:42.905Z,17.95
2022-10-13T16:57:15.681Z,11.57
2022-10-13T16:59:48.183Z,11.20
2022-10-13T17:02:20.994Z,15.52
2022-10-13T17:04:53.573Z,14.85
2022-10-13T17:07:26.363Z,11.45
2022-10-13T17:09:58.976Z,16.83
2022-10-13T17:12:31.944Z,10.57
2022-10-13T17:15:04.840Z,12.85
2022-10-13T17:17:38.063Z,8.35
2022-10-13T17:20:13.042Z,17.05
2022-10-13T17:22:46.094Z,12.88
2022-10-13T17:25:18.741Z,9.48
2022-10-13T17:27:51.407Z,10.68
2022-10-13T17:30:24.049Z,9.48
2022-10-13T17:33:00.737Z,14.90
2022-10-13T17:35:36.703Z,8.57
2022-10-13T17:38:10.116Z,11.00
2022-10-13T17:40:42.631Z,10.05
2022-10-13T17:43:21.755Z,11.15
2022-10-13T17:46:12.157Z,13.13
2022-10-13T17:48:50.363Z,13.45
2022-10-13T17:51:23.768Z,16.83
2022-10-13T17:53:59.112Z,12.90
2022-10-13T17:56:31.977Z,14.80
2022-10-13T17:59:04.819Z,13.05
2022-10-13T18:01:37.658Z,10.73
2022-10-13T18:04:15.012Z,10.57
2022-10-13T18:06:47.638Z,12.90
2022-10-13T18:09:23.372Z,23.98
2022-10-13T18:11:56.323Z,12.88
2022-10-13T18:14:29.353Z,17.67
2022-10-13T18:17:04.719Z,14.65
2022-10-13T18:19:40.292Z,18.02
2022-10-13T18:22:13.110Z,20.83
2022-10-13T18:24:46.661Z,15.65
2022-10-13T18:27:19.981Z,20.98
2022-10-13T18:29:53.115Z,19.05
2022-10-13T18:32:25.832Z,22.38
2022-10-13T18:34:58.515Z,22.40
2022-10-13T18:37:40.091Z,12.02
2022-10-13T18:40:13.192Z,18.65
2022-10-13T18:42:51.652Z,13.98
2022-10-13T18:45:27.063Z,15.63
2022-10-13T18:47:59.621Z,16.92
2022-10-13T18:50:36.274Z,18.25
2022-10-13T18:53:08.842Z,16.33
2022-10-13T18:55:43.097Z,14.88
2022-10-13T18:58:15.649Z,15.38
2022-10-13T19:00:48.717Z,16.13
2022-10-13T19:03:24.124Z,13.20
2022-10-13T19:05:56.878Z,16.42
2022-10-13T19:08:29.592Z,20.75
2022-10-13T19:11:10.037Z,15.13
2022-10-13T19:13:43.150Z,15.60
2022-10-13T19:16:18.796Z,16.83
2022-10-13T19:18:53.984Z,22.42
2022-10-13T19:21:27.292Z,22.80
2022-10-13T19:24:00.651Z,21.60
2022-10-13T19:26:35.543Z,20.10
2022-10-13T19:29:13.860Z,19.85
2022-10-13T19:31:46.620Z,15.30
2022-10-13T19:34:19.625Z,18.70
2022-10-13T19:37:01.786Z,19.08
2022-10-13T19:39:34.585Z,19.23
2022-10-13T19:42:10.899Z,18.85
2022-10-13T19:44:43.424Z,22.15
2022-10-13T19:47:16.141Z,15.95
2022-10-13T19:49:48.603Z,18.70
2022-10-13T19:52:24.080Z,22.15
2022-10-13T19:54:58.285Z,22.60
2022-10-13T19:57:31.027Z,19.77
2022-10-13T20:00:05.038Z,19.23
2022-10-13T20:02:37.843Z,18.23
2022-10-13T20:05:10.510Z,20.98
2022-10-13T20:07:45.841Z,17.13
2022-10-13T20:10:18.426Z,19.98
2022-10-13T20:12:51.290Z,21.02
2022-10-13T20:15:23.825Z,17.75
2022-10-13T20:17:57.991Z,20.38
2022-10-13T20:20:30.822Z,17.05
2022-10-13T20:23:06.165Z,17.33
2022-10-13T20:25:38.905Z,21.55
2022-10-13T20:28:13.945Z,17.88
2022-10-13T20:30:46.491Z,20.25
2022-10-13T20:33:19.204Z,18.48
2022-10-13T20:35:51.721Z,20.90
2022-10-13T20:38:24.504Z,29.67
2022-10-13T20:41:10.218Z,20.67
2022-10-13T20:43:43.354Z,21.40
2022-10-13T20:46:17.277Z,21.90
2022-10-13T20:49:10.285Z,19.63
2022-10-13T20:51:43.628Z,30.05
2022-10-13T20:54:17.342Z,18.20
2022-10-13T20:56:49.898Z,20.08
2022-10-13T20:59:31.670Z,24.65
2022-10-13T21:02:10.130Z,25.73
2022-10-13T21:04:52.017Z,18.52
2022-10-13T21:07:24.658Z,22.23
2022-10-13T21:09:59.629Z,22.20
2022-10-13T21:12:32.181Z,26.85
2022-10-13T21:15:05.285Z,20.08
2022-10-13T21:17:42.253Z,22.35
2022-10-13T21:20:15.257Z,23.15
2022-10-13T21:22:48.108Z,27.13
2022-10-13T21:25:21.033Z,34.45
2022-10-13T21:27:59.524Z,22.75
2022-10-13T21:30:34.550Z,20.77
2022-10-13T21:33:10.141Z,26.02
2022-10-13T21:35:42.809Z,26.20
2022-10-13T21:38:15.296Z,26.90
2022-10-13T21:40:52.986Z,28.33
2022-10-13T21:43:26.456Z,24.45
2022-10-13T21:46:27.738Z,22.35
2022-10-13T21:49:05.668Z,22.92
2022-10-13T21:51:40.053Z,22.55
2022-10-13T21:54:25.590Z,25.73
2022-10-13T21:56:58.393Z,24.88
2022-10-13T21:59:30.900Z,21.05
2022-10-13T22:02:03.575Z,26.13
2022-10-13T22:04:36.143Z,28.40
2022-10-13T22:07:08.932Z,23.33
2022-10-13T22:09:41.585Z,28.10
2022-10-13T22:12:14.420Z,27.90
2022-10-13T22:14:46.929Z,28.13
2022-10-13T22:17:20.078Z,21.98
2022-10-13T22:19:52.804Z,29.58
2022-10-13T22:22:30.135Z,29.20
2022-10-13T22:25:03.642Z,29.83
2022-10-13T22:27:36.316Z,27.92
2022-10-13T22:30:09.209Z,27.05
2022-10-13T22:32:41.940Z,24.38
2022-10-13T22:35:14.464Z,26.65
2022-10-13T22:37:47.206Z,28.15
2022-10-13T22:40:19.722Z,28.75
2022-10-13T22:42:52.402Z,30.40
2022-10-13T22:45:24.941Z,29.80
2022-10-13T22:47:57.705Z,29.60
2022-10-13T22:50:30.197Z,27.17
2022-10-13T22:53:02.978Z,27.80
2022-10-13T22:55:38.345Z,27.05
2022-10-13T22:58:11.106Z,29.33
2022-10-13T23:00:43.621Z,28.58
2022-10-13T23:03:16.737Z,24.95
2022-10-13T23:05:49.476Z,35.80
2022-10-13T23:08:22.171Z,32.47
2022-10-13T23:10:54.689Z,25.55
2022-10-13T23:13:27.665Z,32.38
2022-10-13T23:16:09.638Z,29.60
2022-10-13T23:18:42.803Z,27.75
2022-10-13T23:21:18.568Z,30.75
2022-10-13T23:23:56.540Z,36.03
2022-10-13T23:26:30.115Z,31.63
2022-10-13T23:29:03.163Z,32.33
2022-10-13T23:31:35.869Z,30.60
2022-10-13T23:34:08.580Z,29.42
2022-10-13T23:36:41.327Z,35.83
2022-10-13T23:39:14.080Z,25.17
2022-10-13T23:41:46.805Z,30.05
2022-10-13T23:44:19.567Z,35.42
2022-10-13T23:46:52.216Z,32.47
2022-10-13T23:49:24.912Z,32.33
2022-10-13T23:51:57.457Z,33.17
2022-10-13T23:54:31.246Z,30.67
2022-10-13T23:57:03.857Z,30.65
2022-10-13T23:59:37.261Z,34.22
